sensor_id;sensor_type;location;lat;lon;timestamp;temperature;humidity
28677;DHT22;15858;48.338;11.078;2023-04-24T00:00:44;10.60;99.90
28677;DHT22;15858;48.338;11.078;2023-04-24T00:03:10;10.60;99.90
28677;DHT22;15858;48.338;11.078;2023-04-24T00:05:37;10.60;99.90
28677;DHT22;15858;48.338;11.078;2023-04-24T00:08:04;10.60;99.90
28677;DHT22;15858;48.338;11.078;2023-04-24T00:10:31;10.60;99.90
28677;DHT22;15858;48.338;11.078;2023-04-24T00:12:57;10.60;99.90
28677;DHT22;15858;48.338;11.078;2023-04-24T00:15:24;10.60;99.90
28677;DHT22;15858;48.338;11.078;2023-04-24T00:17:50;10.60;99.90
28677;DHT22;15858;48.338;11.078;2023-04-24T00:20:17;10.50;99.90
28677;DHT22;15858;48.338;11.078;2023-04-24T00:22:44;10.50;99.90
28677;DHT22;15858;48.338;11.078;2023-04-24T00:25:10;10.40;99.90
28677;DHT22;15858;48.338;11.078;2023-04-24T00:27:37;10.40;99.90
28677;DHT22;15858;48.338;11.078;2023-04-24T00:30:04;10.40;99.90
28677;DHT22;15858;48.338;11.078;2023-04-24T00:32:31;10.40;99.90
28677;DHT22;15858;48.338;11.078;2023-04-24T00:34:58;10.40;99.90
28677;DHT22;15858;48.338;11.078;2023-04-24T00:37:24;10.30;99.90
28677;DHT22;15858;48.338;11.078;2023-04-24T00:39:51;10.30;99.90
28677;DHT22;15858;48.338;11.078;2023-04-24T00:42:17;10.30;99.90
28677;DHT22;15858;48.338;11.078;2023-04-24T00:44:44;10.30;99.90
28677;DHT22;15858;48.338;11.078;2023-04-24T00:47:11;10.30;99.90
28677;DHT22;15858;48.338;11.078;2023-04-24T00:49:38;10.20;99.90
28677;DHT22;15858;48.338;11.078;2023-04-24T00:52:04;10.20;99.90
28677;DHT22;15858;48.338;11.078;2023-04-24T00:54:31;10.20;99.90
28677;DHT22;15858;48.338;11.078;2023-04-24T00:56:57;10.20;99.90
28677;DHT22;15858;48.338;11.078;2023-04-24T00:59:24;10.30;99.90
28677;DHT22;15858;48.338;11.078;2023-04-24T01:01:51;10.20;99.90
28677;DHT22;15858;48.338;11.078;2023-04-24T01:04:18;10.20;99.90
28677;DHT22;15858;48.338;11.078;2023-04-24T01:06:45;10.20;99.90
28677;DHT22;15858;48.338;11.078;2023-04-24T01:09:12;10.20;99.90
28677;DHT22;15858;48.338;11.078;2023-04-24T01:11:40;10.20;99.90
28677;DHT22;15858;48.338;11.078;2023-04-24T01:14:07;10.20;99.90
28677;DHT22;15858;48.338;11.078;2023-04-24T01:16:34;10.10;99.90
28677;DHT22;15858;48.338;11.078;2023-04-24T01:19:01;10.10;99.90
28677;DHT22;15858;48.338;11.078;2023-04-24T01:21:30;10.10;99.90
28677;DHT22;15858;48.338;11.078;2023-04-24T01:23:58;10.10;99.90
28677;DHT22;15858;48.338;11.078;2023-04-24T01:26:26;10.10;99.90
28677;DHT22;15858;48.338;11.078;2023-04-24T01:28:53;10.10;99.90
28677;DHT22;15858;48.338;11.078;2023-04-24T01:31:20;10.10;99.90
28677;DHT22;15858;48.338;11.078;2023-04-24T01:33:47;10.10;99.90
28677;DHT22;15858;48.338;11.078;2023-04-24T01:36:14;10.10;99.90
28677;DHT22;15858;48.338;11.078;2023-04-24T01:38:41;10.00;99.90
28677;DHT22;15858;48.338;11.078;2023-04-24T01:41:08;10.00;99.90
28677;DHT22;15858;48.338;11.078;2023-04-24T01:43:35;10.00;99.90
28677;DHT22;15858;48.338;11.078;2023-04-24T01:46:01;9.90;99.90
28677;DHT22;15858;48.338;11.078;2023-04-24T01:48:28;9.90;99.90
28677;DHT22;15858;48.338;11.078;2023-04-24T01:50:56;9.90;99.90
28677;DHT22;15858;48.338;11.078;2023-04-24T01:53:23;9.90;99.90
28677;DHT22;15858;48.338;11.078;2023-04-24T01:55:49;9.90;99.90
28677;DHT22;15858;48.338;11.078;2023-04-24T01:58:16;9.90;99.90
28677;DHT22;15858;48.338;11.078;2023-04-24T02:00:43;9.90;99.90
28677;DHT22;15858;48.338;11.078;2023-04-24T02:03:09;9.90;99.90
28677;DHT22;15858;48.338;11.078;2023-04-24T02:05:36;9.80;99.90
28677;DHT22;15858;48.338;11.078;2023-04-24T02:08:03;9.80;99.90
28677;DHT22;15858;48.338;11.078;2023-04-24T02:10:29;9.90;99.90
28677;DHT22;15858;48.338;11.078;2023-04-24T02:12:56;9.80;99.90
28677;DHT22;15858;48.338;11.078;2023-04-24T02:15:23;9.80;99.90
28677;DHT22;15858;48.338;11.078;2023-04-24T02:17:49;9.80;99.90
28677;DHT22;15858;48.338;11.078;2023-04-24T02:20:16;9.70;99.90
28677;DHT22;15858;48.338;11.078;2023-04-24T02:22:42;9.70;99.90
28677;DHT22;15858;48.338;11.078;2023-04-24T02:25:09;9.70;99.90
28677;DHT22;15858;48.338;11.078;2023-04-24T02:27:36;9.70;99.90
28677;DHT22;15858;48.338;11.078;2023-04-24T02:30:02;9.80;99.90
28677;DHT22;15858;48.338;11.078;2023-04-24T02:32:29;9.80;99.90
28677;DHT22;15858;48.338;11.078;2023-04-24T02:34:56;9.80;99.90
28677;DHT22;15858;48.338;11.078;2023-04-24T02:37:22;9.80;99.90
28677;DHT22;15858;48.338;11.078;2023-04-24T02:39:49;9.70;99.90
28677;DHT22;15858;48.338;11.078;2023-04-24T02:42:15;9.70;99.90
28677;DHT22;15858;48.338;11.078;2023-04-24T02:44:42;9.70;99.90
28677;DHT22;15858;48.338;11.078;2023-04-24T02:47:08;9.70;99.90
28677;DHT22;15858;48.338;11.078;2023-04-24T02:49:35;9.60;99.90
28677;DHT22;15858;48.338;11.078;2023-04-24T02:52:02;9.70;99.90
28677;DHT22;15858;48.338;11.078;2023-04-24T02:54:28;9.70;99.90
28677;DHT22;15858;48.338;11.078;2023-04-24T02:56:55;9.70;99.90
28677;DHT22;15858;48.338;11.078;2023-04-24T02:59:22;9.70;99.90
28677;DHT22;15858;48.338;11.078;2023-04-24T03:01:48;9.70;99.90
28677;DHT22;15858;48.338;11.078;2023-04-24T03:04:15;9.70;99.90
28677;DHT22;15858;48.338;11.078;2023-04-24T03:06:42;9.70;99.90
28677;DHT22;15858;48.338;11.078;2023-04-24T03:09:09;9.70;99.90
28677;DHT22;15858;48.338;11.078;2023-04-24T03:11:35;9.70;99.90
28677;DHT22;15858;48.338;11.078;2023-04-24T03:14:02;9.70;99.90
28677;DHT22;15858;48.338;11.078;2023-04-24T03:16:29;9.70;99.90
28677;DHT22;15858;48.338;11.078;2023-04-24T03:18:55;9.70;99.90
28677;DHT22;15858;48.338;11.078;2023-04-24T03:21:22;9.70;99.90
28677;DHT22;15858;48.338;11.078;2023-04-24T03:23:49;9.70;99.90
28677;DHT22;15858;48.338;11.078;2023-04-24T03:26:15;9.70;99.90
28677;DHT22;15858;48.338;11.078;2023-04-24T03:28:42;9.70;99.90
28677;DHT22;15858;48.338;11.078;2023-04-24T03:31:08;9.70;99.90
28677;DHT22;15858;48.338;11.078;2023-04-24T03:33:35;9.70;99.90
28677;DHT22;15858;48.338;11.078;2023-04-24T03:36:02;9.70;99.90
28677;DHT22;15858;48.338;11.078;2023-04-24T03:38:28;9.70;99.90
28677;DHT22;15858;48.338;11.078;2023-04-24T03:40:55;9.70;99.90
28677;DHT22;15858;48.338;11.078;2023-04-24T03:43:21;9.70;99.90
28677;DHT22;15858;48.338;11.078;2023-04-24T03:45:48;9.70;99.90
28677;DHT22;15858;48.338;11.078;2023-04-24T03:48:15;9.70;99.90
28677;DHT22;15858;48.338;11.078;2023-04-24T03:50:41;9.70;99.90
28677;DHT22;15858;48.338;11.078;2023-04-24T03:53:08;9.70;99.90
28677;DHT22;15858;48.338;11.078;2023-04-24T03:55:35;9.70;99.90
28677;DHT22;15858;48.338;11.078;2023-04-24T03:58:01;9.70;99.90
28677;DHT22;15858;48.338;11.078;2023-04-24T04:00:28;9.70;99.90
28677;DHT22;15858;48.338;11.078;2023-04-24T04:02:54;9.70;99.90
28677;DHT22;15858;48.338;11.078;2023-04-24T04:05:21;9.60;99.90
28677;DHT22;15858;48.338;11.078;2023-04-24T04:07:48;9.60;99.90
28677;DHT22;15858;48.338;11.078;2023-04-24T04:10:15;9.70;99.90
28677;DHT22;15858;48.338;11.078;2023-04-24T04:12:41;9.70;99.90
28677;DHT22;15858;48.338;11.078;2023-04-24T04:15:08;9.60;99.90
28677;DHT22;15858;48.338;11.078;2023-04-24T04:17:35;9.70;99.90
28677;DHT22;15858;48.338;11.078;2023-04-24T04:20:01;9.60;99.90
28677;DHT22;15858;48.338;11.078;2023-04-24T04:22:28;9.70;99.90
28677;DHT22;15858;48.338;11.078;2023-04-24T04:24:55;9.60;99.90
28677;DHT22;15858;48.338;11.078;2023-04-24T04:27:21;9.60;99.90
28677;DHT22;15858;48.338;11.078;2023-04-24T04:29:48;9.60;99.90
28677;DHT22;15858;48.338;11.078;2023-04-24T04:32:15;9.60;99.90
28677;DHT22;15858;48.338;11.078;2023-04-24T04:34:41;9.50;99.90
28677;DHT22;15858;48.338;11.078;2023-04-24T04:37:08;9.60;99.90
28677;DHT22;15858;48.338;11.078;2023-04-24T04:39:34;9.60;99.90
28677;DHT22;15858;48.338;11.078;2023-04-24T04:42:01;9.50;99.90
28677;DHT22;15858;48.338;11.078;2023-04-24T04:44:28;9.50;99.90
28677;DHT22;15858;48.338;11.078;2023-04-24T04:46:56;9.50;99.90
28677;DHT22;15858;48.338;11.078;2023-04-24T04:49:23;9.50;99.90
28677;DHT22;15858;48.338;11.078;2023-04-24T04:51:49;9.50;99.90
28677;DHT22;15858;48.338;11.078;2023-04-24T04:54:16;9.40;99.90
28677;DHT22;15858;48.338;11.078;2023-04-24T04:56:43;9.40;99.90
28677;DHT22;15858;48.338;11.078;2023-04-24T04:59:09;9.50;99.90
28677;DHT22;15858;48.338;11.078;2023-04-24T05:01:36;9.50;99.90
28677;DHT22;15858;48.338;11.078;2023-04-24T05:04:03;9.50;99.90
28677;DHT22;15858;48.338;11.078;2023-04-24T05:06:30;9.50;99.90
28677;DHT22;15858;48.338;11.078;2023-04-24T05:08:56;9.50;99.90
28677;DHT22;15858;48.338;11.078;2023-04-24T05:11:23;9.50;99.90
28677;DHT22;15858;48.338;11.078;2023-04-24T05:13:50;9.50;99.90
28677;DHT22;15858;48.338;11.078;2023-04-24T05:16:16;9.50;99.90
28677;DHT22;15858;48.338;11.078;2023-04-24T05:18:43;9.60;99.90
28677;DHT22;15858;48.338;11.078;2023-04-24T05:21:10;9.60;99.90
28677;DHT22;15858;48.338;11.078;2023-04-24T05:23:36;9.60;99.90
28677;DHT22;15858;48.338;11.078;2023-04-24T05:26:03;9.70;99.90
28677;DHT22;15858;48.338;11.078;2023-04-24T05:28:33;9.60;99.90
28677;DHT22;15858;48.338;11.078;2023-04-24T05:30:59;9.70;99.90
28677;DHT22;15858;48.338;11.078;2023-04-24T05:33:26;9.70;99.90
28677;DHT22;15858;48.338;11.078;2023-04-24T05:35:53;9.80;99.90
28677;DHT22;15858;48.338;11.078;2023-04-24T05:38:19;9.70;99.90
28677;DHT22;15858;48.338;11.078;2023-04-24T05:40:46;9.70;99.90
28677;DHT22;15858;48.338;11.078;2023-04-24T05:43:13;9.70;99.90
28677;DHT22;15858;48.338;11.078;2023-04-24T05:45:39;9.70;99.90
28677;DHT22;15858;48.338;11.078;2023-04-24T05:48:06;9.70;99.90
28677;DHT22;15858;48.338;11.078;2023-04-24T05:50:33;9.70;99.90
28677;DHT22;15858;48.338;11.078;2023-04-24T05:53:02;9.80;99.90
28677;DHT22;15858;48.338;11.078;2023-04-24T05:55:30;9.80;99.90
28677;DHT22;15858;48.338;11.078;2023-04-24T05:57:57;9.80;99.90
28677;DHT22;15858;48.338;11.078;2023-04-24T06:00:25;9.90;99.90
28677;DHT22;15858;48.338;11.078;2023-04-24T06:02:52;9.90;99.90
28677;DHT22;15858;48.338;11.078;2023-04-24T06:05:20;9.90;99.90
28677;DHT22;15858;48.338;11.078;2023-04-24T06:07:47;9.90;99.90
28677;DHT22;15858;48.338;11.078;2023-04-24T06:10:14;9.90;99.90
28677;DHT22;15858;48.338;11.078;2023-04-24T06:12:40;9.90;99.90
28677;DHT22;15858;48.338;11.078;2023-04-24T06:15:07;9.90;99.90
28677;DHT22;15858;48.338;11.078;2023-04-24T06:17:34;9.80;99.90
28677;DHT22;15858;48.338;11.078;2023-04-24T06:20:01;9.90;99.90
28677;DHT22;15858;48.338;11.078;2023-04-24T06:22:27;9.90;99.90
28677;DHT22;15858;48.338;11.078;2023-04-24T06:24:54;9.90;99.90
28677;DHT22;15858;48.338;11.078;2023-04-24T06:27:21;9.90;99.90
28677;DHT22;15858;48.338;11.078;2023-04-24T06:29:47;9.90;99.90
28677;DHT22;15858;48.338;11.078;2023-04-24T06:32:14;9.90;99.90
28677;DHT22;15858;48.338;11.078;2023-04-24T06:34:40;10.00;99.90
28677;DHT22;15858;48.338;11.078;2023-04-24T06:37:07;10.00;99.90
28677;DHT22;15858;48.338;11.078;2023-04-24T06:39:34;10.00;99.90
28677;DHT22;15858;48.338;11.078;2023-04-24T06:42:00;10.10;99.90
28677;DHT22;15858;48.338;11.078;2023-04-24T06:44:27;10.00;99.90
28677;DHT22;15858;48.338;11.078;2023-04-24T06:46:53;10.10;99.90
28677;DHT22;15858;48.338;11.078;2023-04-24T06:49:20;10.10;99.90
28677;DHT22;15858;48.338;11.078;2023-04-24T06:51:46;10.10;99.90
28677;DHT22;15858;48.338;11.078;2023-04-24T06:54:13;10.10;99.90
28677;DHT22;15858;48.338;11.078;2023-04-24T06:56:40;10.10;99.90
28677;DHT22;15858;48.338;11.078;2023-04-24T06:59:06;10.20;99.90
28677;DHT22;15858;48.338;11.078;2023-04-24T07:01:33;10.20;99.90
28677;DHT22;15858;48.338;11.078;2023-04-24T07:04:00;10.20;99.90
28677;DHT22;15858;48.338;11.078;2023-04-24T07:06:27;10.20;99.90
28677;DHT22;15858;48.338;11.078;2023-04-24T07:08:53;10.20;99.90
28677;DHT22;15858;48.338;11.078;2023-04-24T07:11:20;10.20;99.90
28677;DHT22;15858;48.338;11.078;2023-04-24T07:13:47;10.20;99.90
28677;DHT22;15858;48.338;11.078;2023-04-24T07:16:13;10.30;99.90
28677;DHT22;15858;48.338;11.078;2023-04-24T07:18:40;10.20;99.90
28677;DHT22;15858;48.338;11.078;2023-04-24T07:21:06;10.20;99.90
28677;DHT22;15858;48.338;11.078;2023-04-24T07:23:33;10.30;99.90
28677;DHT22;15858;48.338;11.078;2023-04-24T07:26:00;10.30;99.90
28677;DHT22;15858;48.338;11.078;2023-04-24T07:28:26;10.30;99.90
28677;DHT22;15858;48.338;11.078;2023-04-24T07:30:53;10.40;99.90
28677;DHT22;15858;48.338;11.078;2023-04-24T07:33:19;10.30;99.90
28677;DHT22;15858;48.338;11.078;2023-04-24T07:35:46;10.30;99.90
28677;DHT22;15858;48.338;11.078;2023-04-24T07:38:13;10.30;99.90
28677;DHT22;15858;48.338;11.078;2023-04-24T07:40:39;10.30;99.90
28677;DHT22;15858;48.338;11.078;2023-04-24T07:43:06;10.30;99.90
28677;DHT22;15858;48.338;11.078;2023-04-24T07:45:33;10.30;99.90
28677;DHT22;15858;48.338;11.078;2023-04-24T07:47:59;10.30;99.90
28677;DHT22;15858;48.338;11.078;2023-04-24T07:50:26;10.30;99.90
28677;DHT22;15858;48.338;11.078;2023-04-24T07:52:52;10.30;99.90
28677;DHT22;15858;48.338;11.078;2023-04-24T07:55:19;10.30;99.90
28677;DHT22;15858;48.338;11.078;2023-04-24T07:57:49;10.20;99.90
28677;DHT22;15858;48.338;11.078;2023-04-24T08:00:16;10.10;99.90
28677;DHT22;15858;48.338;11.078;2023-04-24T08:02:43;10.00;99.90
28677;DHT22;15858;48.338;11.078;2023-04-24T08:05:09;9.90;99.90
28677;DHT22;15858;48.338;11.078;2023-04-24T08:07:36;9.90;99.90
28677;DHT22;15858;48.338;11.078;2023-04-24T08:10:04;9.90;99.90
28677;DHT22;15858;48.338;11.078;2023-04-24T08:12:31;10.00;99.90
28677;DHT22;15858;48.338;11.078;2023-04-24T08:14:57;9.90;99.90
28677;DHT22;15858;48.338;11.078;2023-04-24T08:17:24;10.00;99.90
28677;DHT22;15858;48.338;11.078;2023-04-24T08:19:50;10.20;99.90
28677;DHT22;15858;48.338;11.078;2023-04-24T08:22:17;10.20;99.90
28677;DHT22;15858;48.338;11.078;2023-04-24T08:24:44;10.30;99.90
28677;DHT22;15858;48.338;11.078;2023-04-24T08:27:11;10.40;99.90
28677;DHT22;15858;48.338;11.078;2023-04-24T08:29:37;10.40;99.90
28677;DHT22;15858;48.338;11.078;2023-04-24T08:32:04;10.30;99.90
28677;DHT22;15858;48.338;11.078;2023-04-24T08:34:30;10.30;99.90
28677;DHT22;15858;48.338;11.078;2023-04-24T08:36:57;10.30;99.90
28677;DHT22;15858;48.338;11.078;2023-04-24T08:39:24;10.30;99.90
28677;DHT22;15858;48.338;11.078;2023-04-24T08:41:52;10.40;99.90
28677;DHT22;15858;48.338;11.078;2023-04-24T08:44:20;10.50;99.90
28677;DHT22;15858;48.338;11.078;2023-04-24T08:46:48;10.60;99.90
28677;DHT22;15858;48.338;11.078;2023-04-24T08:49:15;10.70;99.90
28677;DHT22;15858;48.338;11.078;2023-04-24T08:51:42;10.70;99.90
28677;DHT22;15858;48.338;11.078;2023-04-24T08:54:09;10.80;99.90
28677;DHT22;15858;48.338;11.078;2023-04-24T08:56:37;11.00;99.90
28677;DHT22;15858;48.338;11.078;2023-04-24T08:59:05;11.00;99.90
28677;DHT22;15858;48.338;11.078;2023-04-24T09:01:32;11.00;99.90
28677;DHT22;15858;48.338;11.078;2023-04-24T09:04:02;11.00;99.90
28677;DHT22;15858;48.338;11.078;2023-04-24T09:06:30;11.00;99.90
28677;DHT22;15858;48.338;11.078;2023-04-24T09:08:59;10.90;99.90
28677;DHT22;15858;48.338;11.078;2023-04-24T09:11:27;10.90;99.90
28677;DHT22;15858;48.338;11.078;2023-04-24T09:13:56;11.00;99.90
28677;DHT22;15858;48.338;11.078;2023-04-24T09:16:22;11.10;99.90
28677;DHT22;15858;48.338;11.078;2023-04-24T09:18:51;11.20;99.90
28677;DHT22;15858;48.338;11.078;2023-04-24T09:21:20;11.20;99.90
28677;DHT22;15858;48.338;11.078;2023-04-24T09:24:01;11.40;99.90
28677;DHT22;15858;48.338;11.078;2023-04-24T09:26:33;11.50;99.90
28677;DHT22;15858;48.338;11.078;2023-04-24T09:29:01;11.60;99.90
28677;DHT22;15858;48.338;11.078;2023-04-24T09:31:28;11.70;99.90
28677;DHT22;15858;48.338;11.078;2023-04-24T09:33:58;11.70;99.90
28677;DHT22;15858;48.338;11.078;2023-04-24T09:36:32;11.70;99.90
28677;DHT22;15858;48.338;11.078;2023-04-24T09:39:04;11.80;99.90
28677;DHT22;15858;48.338;11.078;2023-04-24T09:41:33;12.00;99.90
28677;DHT22;15858;48.338;11.078;2023-04-24T09:44:16;12.00;99.90
28677;DHT22;15858;48.338;11.078;2023-04-24T09:46:45;12.00;99.90
28677;DHT22;15858;48.338;11.078;2023-04-24T09:49:16;12.00;99.90
28677;DHT22;15858;48.338;11.078;2023-04-24T09:51:43;12.30;99.90
28677;DHT22;15858;48.338;11.078;2023-04-24T09:54:15;12.60;99.90
28677;DHT22;15858;48.338;11.078;2023-04-24T09:56:43;12.80;99.90
28677;DHT22;15858;48.338;11.078;2023-04-24T09:59:13;12.90;99.90
28677;DHT22;15858;48.338;11.078;2023-04-24T10:01:39;12.80;99.90
28677;DHT22;15858;48.338;11.078;2023-04-24T10:04:06;12.70;99.90
28677;DHT22;15858;48.338;11.078;2023-04-24T10:06:34;12.80;99.90
28677;DHT22;15858;48.338;11.078;2023-04-24T10:09:01;12.90;99.90
28677;DHT22;15858;48.338;11.078;2023-04-24T10:11:28;13.00;99.90
28677;DHT22;15858;48.338;11.078;2023-04-24T10:13:54;13.20;99.90
28677;DHT22;15858;48.338;11.078;2023-04-24T10:16:22;13.40;99.90
28677;DHT22;15858;48.338;11.078;2023-04-24T10:18:49;13.50;99.90
28677;DHT22;15858;48.338;11.078;2023-04-24T10:21:17;13.50;99.90
28677;DHT22;15858;48.338;11.078;2023-04-24T10:23:44;13.40;99.90
28677;DHT22;15858;48.338;11.078;2023-04-24T10:26:13;13.30;99.90
28677;DHT22;15858;48.338;11.078;2023-04-24T10:28:39;13.10;99.90
28677;DHT22;15858;48.338;11.078;2023-04-24T10:31:09;13.00;99.90
28677;DHT22;15858;48.338;11.078;2023-04-24T10:33:36;13.10;99.90
28677;DHT22;15858;48.338;11.078;2023-04-24T10:36:04;13.20;99.90
28677;DHT22;15858;48.338;11.078;2023-04-24T10:38:31;13.00;99.90
28677;DHT22;15858;48.338;11.078;2023-04-24T10:41:10;12.50;99.90
28677;DHT22;15858;48.338;11.078;2023-04-24T10:43:39;11.80;99.90
28677;DHT22;15858;48.338;11.078;2023-04-24T10:46:06;11.50;99.90
28677;DHT22;15858;48.338;11.078;2023-04-24T10:48:33;11.40;99.90
28677;DHT22;15858;48.338;11.078;2023-04-24T10:51:00;11.00;99.90
28677;DHT22;15858;48.338;11.078;2023-04-24T10:53:29;10.50;99.90
28677;DHT22;15858;48.338;11.078;2023-04-24T10:56:04;10.20;99.90
28677;DHT22;15858;48.338;11.078;2023-04-24T10:58:51;10.00;99.90
28677;DHT22;15858;48.338;11.078;2023-04-24T11:01:30;10.00;99.90
28677;DHT22;15858;48.338;11.078;2023-04-24T11:04:02;10.10;99.90
28677;DHT22;15858;48.338;11.078;2023-04-24T11:06:36;10.20;99.90
28677;DHT22;15858;48.338;11.078;2023-04-24T11:11:31;10.40;99.90
28677;DHT22;15858;48.338;11.078;2023-04-24T11:16:52;10.60;99.90
28677;DHT22;15858;48.338;11.078;2023-04-24T11:19:21;11.10;99.90
28677;DHT22;15858;48.338;11.078;2023-04-24T11:21:59;11.50;99.90
28677;DHT22;15858;48.338;11.078;2023-04-24T11:27:20;12.30;99.90
28677;DHT22;15858;48.338;11.078;2023-04-24T11:32:29;12.40;99.90
28677;DHT22;15858;48.338;11.078;2023-04-24T11:35:20;12.40;99.90
28677;DHT22;15858;48.338;11.078;2023-04-24T11:37:52;12.30;99.90
28677;DHT22;15858;48.338;11.078;2023-04-24T11:40:39;12.70;99.90
28677;DHT22;15858;48.338;11.078;2023-04-24T11:43:07;12.90;99.90
28677;DHT22;15858;48.338;11.078;2023-04-24T11:45:35;13.20;99.90
28677;DHT22;15858;48.338;11.078;2023-04-24T11:48:03;13.40;99.90
28677;DHT22;15858;48.338;11.078;2023-04-24T11:50:30;13.60;99.90
28677;DHT22;15858;48.338;11.078;2023-04-24T11:52:57;13.90;99.90
28677;DHT22;15858;48.338;11.078;2023-04-24T11:55:28;14.10;99.90
28677;DHT22;15858;48.338;11.078;2023-04-24T11:57:59;14.20;99.90
28677;DHT22;15858;48.338;11.078;2023-04-24T12:00:31;14.40;99.90
28677;DHT22;15858;48.338;11.078;2023-04-24T12:05:32;14.50;99.90
28677;DHT22;15858;48.338;11.078;2023-04-24T12:07:59;14.40;99.90
28677;DHT22;15858;48.338;11.078;2023-04-24T12:10:27;14.10;99.90
28677;DHT22;15858;48.338;11.078;2023-04-24T12:12:56;13.70;99.90
28677;DHT22;15858;48.338;11.078;2023-04-24T12:15:23;13.60;99.90
28677;DHT22;15858;48.338;11.078;2023-04-24T12:17:51;13.20;99.90
28677;DHT22;15858;48.338;11.078;2023-04-24T12:20:27;13.00;99.90
28677;DHT22;15858;48.338;11.078;2023-04-24T12:22:56;12.80;99.90
28677;DHT22;15858;48.338;11.078;2023-04-24T12:25:25;12.70;99.90
28677;DHT22;15858;48.338;11.078;2023-04-24T12:28:08;12.80;99.90
28677;DHT22;15858;48.338;11.078;2023-04-24T12:30:39;13.00;99.90
28677;DHT22;15858;48.338;11.078;2023-04-24T12:33:06;13.20;99.90
28677;DHT22;15858;48.338;11.078;2023-04-24T12:35:33;13.20;99.90
28677;DHT22;15858;48.338;11.078;2023-04-24T12:38:12;13.30;99.90
28677;DHT22;15858;48.338;11.078;2023-04-24T12:40:40;13.60;99.90
28677;DHT22;15858;48.338;11.078;2023-04-24T12:43:20;13.90;99.90
28677;DHT22;15858;48.338;11.078;2023-04-24T12:45:49;14.30;99.90
28677;DHT22;15858;48.338;11.078;2023-04-24T12:48:16;14.60;99.90
28677;DHT22;15858;48.338;11.078;2023-04-24T12:50:43;14.70;99.90
28677;DHT22;15858;48.338;11.078;2023-04-24T12:53:12;14.90;99.90
28677;DHT22;15858;48.338;11.078;2023-04-24T12:55:39;15.20;99.90
28677;DHT22;15858;48.338;11.078;2023-04-24T12:58:06;15.20;99.90
28677;DHT22;15858;48.338;11.078;2023-04-24T13:00:34;14.90;99.90
28677;DHT22;15858;48.338;11.078;2023-04-24T13:03:01;15.00;99.90
28677;DHT22;15858;48.338;11.078;2023-04-24T13:05:28;14.90;99.90
28677;DHT22;15858;48.338;11.078;2023-04-24T13:07:55;14.70;99.90
28677;DHT22;15858;48.338;11.078;2023-04-24T13:10:21;14.60;99.90
28677;DHT22;15858;48.338;11.078;2023-04-24T13:12:48;14.30;99.90
28677;DHT22;15858;48.338;11.078;2023-04-24T13:15:15;14.00;99.90
28677;DHT22;15858;48.338;11.078;2023-04-24T13:17:42;13.70;99.90
28677;DHT22;15858;48.338;11.078;2023-04-24T13:20:08;13.50;99.90
28677;DHT22;15858;48.338;11.078;2023-04-24T13:22:36;13.40;99.90
28677;DHT22;15858;48.338;11.078;2023-04-24T13:25:02;13.70;99.90
28677;DHT22;15858;48.338;11.078;2023-04-24T13:27:29;13.90;99.90
28677;DHT22;15858;48.338;11.078;2023-04-24T13:29:56;14.10;99.90
28677;DHT22;15858;48.338;11.078;2023-04-24T13:32:22;14.30;99.90
28677;DHT22;15858;48.338;11.078;2023-04-24T13:34:49;14.40;99.90
28677;DHT22;15858;48.338;11.078;2023-04-24T13:37:16;14.60;99.90
28677;DHT22;15858;48.338;11.078;2023-04-24T13:39:42;14.80;99.90
28677;DHT22;15858;48.338;11.078;2023-04-24T13:42:09;15.00;99.90
28677;DHT22;15858;48.338;11.078;2023-04-24T13:44:35;15.00;99.90
28677;DHT22;15858;48.338;11.078;2023-04-24T13:47:02;15.00;99.90
28677;DHT22;15858;48.338;11.078;2023-04-24T13:49:29;14.90;99.90
28677;DHT22;15858;48.338;11.078;2023-04-24T13:51:56;14.60;99.90
28677;DHT22;15858;48.338;11.078;2023-04-24T13:54:23;14.50;99.90
28677;DHT22;15858;48.338;11.078;2023-04-24T13:56:49;14.50;99.90
28677;DHT22;15858;48.338;11.078;2023-04-24T13:59:17;14.50;99.90
28677;DHT22;15858;48.338;11.078;2023-04-24T14:01:43;14.60;99.90
28677;DHT22;15858;48.338;11.078;2023-04-24T14:04:10;14.40;99.90
28677;DHT22;15858;48.338;11.078;2023-04-24T14:06:37;14.30;99.90
28677;DHT22;15858;48.338;11.078;2023-04-24T14:09:04;14.10;99.90
28677;DHT22;15858;48.338;11.078;2023-04-24T14:11:30;13.90;99.90
28677;DHT22;15858;48.338;11.078;2023-04-24T14:13:57;13.90;99.90
28677;DHT22;15858;48.338;11.078;2023-04-24T14:16:24;14.00;99.90
28677;DHT22;15858;48.338;11.078;2023-04-24T14:18:51;14.10;99.90
28677;DHT22;15858;48.338;11.078;2023-04-24T14:21:17;14.00;99.90
28677;DHT22;15858;48.338;11.078;2023-04-24T14:23:44;14.00;99.90
28677;DHT22;15858;48.338;11.078;2023-04-24T14:26:11;13.90;99.90
28677;DHT22;15858;48.338;11.078;2023-04-24T14:28:37;13.80;99.90
28677;DHT22;15858;48.338;11.078;2023-04-24T14:31:04;13.90;99.90
28677;DHT22;15858;48.338;11.078;2023-04-24T14:33:31;13.70;99.90
28677;DHT22;15858;48.338;11.078;2023-04-24T14:35:57;13.50;99.90
28677;DHT22;15858;48.338;11.078;2023-04-24T14:38:24;13.50;99.90
28677;DHT22;15858;48.338;11.078;2023-04-24T14:40:50;13.40;99.90
28677;DHT22;15858;48.338;11.078;2023-04-24T14:43:33;13.50;99.90
28677;DHT22;15858;48.338;11.078;2023-04-24T14:46:00;13.70;99.90
28677;DHT22;15858;48.338;11.078;2023-04-24T14:48:26;13.80;99.90
28677;DHT22;15858;48.338;11.078;2023-04-24T14:50:53;13.90;99.90
28677;DHT22;15858;48.338;11.078;2023-04-24T14:53:20;13.90;99.90
28677;DHT22;15858;48.338;11.078;2023-04-24T14:55:47;13.90;99.90
28677;DHT22;15858;48.338;11.078;2023-04-24T14:58:13;13.80;99.90
28677;DHT22;15858;48.338;11.078;2023-04-24T15:00:40;13.80;99.90
28677;DHT22;15858;48.338;11.078;2023-04-24T15:03:06;13.50;99.90
28677;DHT22;15858;48.338;11.078;2023-04-24T15:05:33;13.60;99.90
28677;DHT22;15858;48.338;11.078;2023-04-24T15:08:01;13.60;99.90
28677;DHT22;15858;48.338;11.078;2023-04-24T15:10:28;13.60;99.90
28677;DHT22;15858;48.338;11.078;2023-04-24T15:12:55;13.40;99.90
28677;DHT22;15858;48.338;11.078;2023-04-24T15:15:21;13.20;99.90
28677;DHT22;15858;48.338;11.078;2023-04-24T15:17:48;13.20;99.90
28677;DHT22;15858;48.338;11.078;2023-04-24T15:20:15;13.20;99.90
28677;DHT22;15858;48.338;11.078;2023-04-24T15:22:41;13.40;99.90
28677;DHT22;15858;48.338;11.078;2023-04-24T15:25:08;13.40;99.90
28677;DHT22;15858;48.338;11.078;2023-04-24T15:27:42;13.30;99.90
28677;DHT22;15858;48.338;11.078;2023-04-24T15:30:10;13.30;99.80
28677;DHT22;15858;48.338;11.078;2023-04-24T15:32:37;13.10;99.90
28677;DHT22;15858;48.338;11.078;2023-04-24T15:35:05;13.00;99.30